sensor_id;sensor_type;location;lat;lon;timestamp;P1;durP1;ratioP1;P2;durP2;ratioP2
8675;SDS011;4375;52.486;13.424;2023-02-28T00:00:18;17.45;;;3.88;;
8675;SDS011;4375;52.486;13.424;2023-02-28T00:02:44;18.60;;;3.83;;
8675;SDS011;4375;52.486;13.424;2023-02-28T00:05:11;19.40;;;4.07;;
8675;SDS011;4375;52.486;13.424;2023-02-28T00:07:39;18.30;;;4.47;;
8675;SDS011;4375;52.486;13.424;2023-02-28T00:10:06;19.87;;;4.33;;
8675;SDS011;4375;52.486;13.424;2023-02-28T00:12:33;17.15;;;3.80;;
8675;SDS011;4375;52.486;13.424;2023-02-28T00:15:00;19.20;;;4.80;;
8675;SDS011;4375;52.486;13.424;2023-02-28T00:17:26;16.60;;;4.35;;
8675;SDS011;4375;52.486;13.424;2023-02-28T00:19:51;16.60;;;3.80;;
8675;SDS011;4375;52.486;13.424;2023-02-28T00:22:18;16.27;;;4.30;;
8675;SDS011;4375;52.486;13.424;2023-02-28T00:24:45;21.83;;;4.28;;
8675;SDS011;4375;52.486;13.424;2023-02-28T00:27:11;17.83;;;4.03;;
8675;SDS011;4375;52.486;13.424;2023-02-28T00:29:36;17.73;;;4.60;;
8675;SDS011;4375;52.486;13.424;2023-02-28T00:32:02;18.75;;;4.38;;
8675;SDS011;4375;52.486;13.424;2023-02-28T00:34:29;19.00;;;4.90;;
8675;SDS011;4375;52.486;13.424;2023-02-28T00:36:55;17.87;;;4.47;;
8675;SDS011;4375;52.486;13.424;2023-02-28T00:39:21;18.17;;;3.80;;
8675;SDS011;4375;52.486;13.424;2023-02-28T00:41:47;16.77;;;4.30;;
8675;SDS011;4375;52.486;13.424;2023-02-28T00:44:12;18.97;;;5.00;;
8675;SDS011;4375;52.486;13.424;2023-02-28T00:46:38;17.70;;;4.17;;
8675;SDS011;4375;52.486;13.424;2023-02-28T00:49:03;16.73;;;4.43;;
8675;SDS011;4375;52.486;13.424;2023-02-28T00:51:29;18.40;;;4.70;;
8675;SDS011;4375;52.486;13.424;2023-02-28T00:53:55;16.97;;;4.60;;
8675;SDS011;4375;52.486;13.424;2023-02-28T00:56:20;18.00;;;4.43;;
8675;SDS011;4375;52.486;13.424;2023-02-28T00:58:46;18.80;;;4.30;;
8675;SDS011;4375;52.486;13.424;2023-02-28T01:01:12;19.00;;;5.33;;
8675;SDS011;4375;52.486;13.424;2023-02-28T01:03:37;19.30;;;4.03;;
8675;SDS011;4375;52.486;13.424;2023-02-28T01:06:03;17.77;;;4.03;;
8675;SDS011;4375;52.486;13.424;2023-02-28T01:08:29;21.48;;;5.15;;
8675;SDS011;4375;52.486;13.424;2023-02-28T01:10:55;19.50;;;4.60;;
8675;SDS011;4375;52.486;13.424;2023-02-28T01:13:21;19.67;;;4.73;;
8675;SDS011;4375;52.486;13.424;2023-02-28T01:15:52;24.20;;;4.80;;
8675;SDS011;4375;52.486;13.424;2023-02-28T01:18:19;18.15;;;5.30;;
8675;SDS011;4375;52.486;13.424;2023-02-28T01:20:45;18.58;;;4.97;;
8675;SDS011;4375;52.486;13.424;2023-02-28T01:23:11;17.10;;;4.67;;
8675;SDS011;4375;52.486;13.424;2023-02-28T01:25:37;21.03;;;5.50;;
8675;SDS011;4375;52.486;13.424;2023-02-28T01:28:03;18.97;;;5.07;;
8675;SDS011;4375;52.486;13.424;2023-02-28T01:30:30;19.85;;;5.43;;
8675;SDS011;4375;52.486;13.424;2023-02-28T01:32:56;20.90;;;4.17;;
8675;SDS011;4375;52.486;13.424;2023-02-28T01:35:21;20.77;;;5.60;;
8675;SDS011;4375;52.486;13.424;2023-02-28T01:37:47;20.00;;;6.33;;
8675;SDS011;4375;52.486;13.424;2023-02-28T01:40:13;21.47;;;5.47;;
8675;SDS011;4375;52.486;13.424;2023-02-28T01:42:39;19.70;;;5.00;;
8675;SDS011;4375;52.486;13.424;2023-02-28T01:47:40;19.08;;;5.38;;
8675;SDS011;4375;52.486;13.424;2023-02-28T01:50:09;20.17;;;5.40;;
8675;SDS011;4375;52.486;13.424;2023-02-28T01:52:40;19.70;;;5.18;;
8675;SDS011;4375;52.486;13.424;2023-02-28T01:55:07;18.65;;;4.43;;
8675;SDS011;4375;52.486;13.424;2023-02-28T01:57:36;18.23;;;4.75;;
8675;SDS011;4375;52.486;13.424;2023-02-28T02:00:09;20.00;;;4.95;;
8675;SDS011;4375;52.486;13.424;2023-02-28T02:02:39;19.92;;;5.30;;
8675;SDS011;4375;52.486;13.424;2023-02-28T02:05:09;18.92;;;5.05;;
8675;SDS011;4375;52.486;13.424;2023-02-28T02:07:39;25.23;;;5.38;;
8675;SDS011;4375;52.486;13.424;2023-02-28T02:10:17;16.98;;;4.50;;
8675;SDS011;4375;52.486;13.424;2023-02-28T02:13:05;21.08;;;5.22;;
8675;SDS011;4375;52.486;13.424;2023-02-28T02:19:16;19.92;;;5.03;;
8675;SDS011;4375;52.486;13.424;2023-02-28T02:27:16;17.80;;;5.55;;
8675;SDS011;4375;52.486;13.424;2023-02-28T02:35:30;21.25;;;5.38;;
8675;SDS011;4375;52.486;13.424;2023-02-28T02:38:27;17.00;;;4.35;;
8675;SDS011;4375;52.486;13.424;2023-02-28T02:41:15;21.83;;;6.43;;
8675;SDS011;4375;52.486;13.424;2023-02-28T02:43:51;18.67;;;4.88;;
8675;SDS011;4375;52.486;13.424;2023-02-28T02:46:23;18.85;;;5.07;;
8675;SDS011;4375;52.486;13.424;2023-02-28T02:48:54;20.45;;;5.88;;
8675;SDS011;4375;52.486;13.424;2023-02-28T02:51:23;22.70;;;5.97;;
8675;SDS011;4375;52.486;13.424;2023-02-28T02:53:50;20.63;;;5.57;;
8675;SDS011;4375;52.486;13.424;2023-02-28T02:56:21;22.52;;;5.78;;
8675;SDS011;4375;52.486;13.424;2023-02-28T02:58:51;23.10;;;5.25;;
8675;SDS011;4375;52.486;13.424;2023-02-28T03:01:22;23.73;;;6.78;;
8675;SDS011;4375;52.486;13.424;2023-02-28T03:04:03;24.27;;;6.78;;
8675;SDS011;4375;52.486;13.424;2023-02-28T03:06:33;21.52;;;5.72;;
8675;SDS011;4375;52.486;13.424;2023-02-28T03:09:00;21.42;;;6.20;;
8675;SDS011;4375;52.486;13.424;2023-02-28T03:11:25;21.10;;;6.20;;
8675;SDS011;4375;52.486;13.424;2023-02-28T03:13:53;24.50;;;6.03;;
8675;SDS011;4375;52.486;13.424;2023-02-28T03:16:40;18.67;;;5.10;;
8675;SDS011;4375;52.486;13.424;2023-02-28T03:21:53;21.40;;;6.07;;
8675;SDS011;4375;52.486;13.424;2023-02-28T03:24:45;26.10;;;5.43;;
8675;SDS011;4375;52.486;13.424;2023-02-28T03:30:52;24.00;;;5.90;;
8675;SDS011;4375;52.486;13.424;2023-02-28T03:33:26;20.85;;;5.47;;
8675;SDS011;4375;52.486;13.424;2023-02-28T03:36:05;21.15;;;6.10;;
8675;SDS011;4375;52.486;13.424;2023-02-28T03:41:08;23.23;;;6.30;;
8675;SDS011;4375;52.486;13.424;2023-02-28T03:43:39;17.55;;;4.93;;
8675;SDS011;4375;52.486;13.424;2023-02-28T03:46:09;22.73;;;6.22;;
8675;SDS011;4375;52.486;13.424;2023-02-28T03:48:40;21.38;;;6.18;;
8675;SDS011;4375;52.486;13.424;2023-02-28T03:51:13;22.70;;;6.78;;
8675;SDS011;4375;52.486;13.424;2023-02-28T03:53:53;19.33;;;4.90;;
8675;SDS011;4375;52.486;13.424;2023-02-28T03:59:27;20.02;;;5.45;;
8675;SDS011;4375;52.486;13.424;2023-02-28T04:01:57;20.95;;;5.72;;
8675;SDS011;4375;52.486;13.424;2023-02-28T04:04:24;18.77;;;5.22;;
8675;SDS011;4375;52.486;13.424;2023-02-28T04:06:50;20.73;;;5.30;;
8675;SDS011;4375;52.486;13.424;2023-02-28T04:09:17;19.67;;;5.55;;
8675;SDS011;4375;52.486;13.424;2023-02-28T04:11:48;18.77;;;5.80;;
8675;SDS011;4375;52.486;13.424;2023-02-28T04:14:16;22.35;;;6.15;;
8675;SDS011;4375;52.486;13.424;2023-02-28T04:16:42;17.90;;;4.93;;
8675;SDS011;4375;52.486;13.424;2023-02-28T04:19:09;19.07;;;5.87;;
8675;SDS011;4375;52.486;13.424;2023-02-28T04:21:36;18.33;;;5.45;;
8675;SDS011;4375;52.486;13.424;2023-02-28T04:24:04;20.60;;;5.85;;
8675;SDS011;4375;52.486;13.424;2023-02-28T04:26:30;21.35;;;6.30;;
8675;SDS011;4375;52.486;13.424;2023-02-28T04:29:00;21.15;;;6.15;;
8675;SDS011;4375;52.486;13.424;2023-02-28T04:31:27;20.33;;;5.80;;
8675;SDS011;4375;52.486;13.424;2023-02-28T04:33:53;21.50;;;6.50;;
8675;SDS011;4375;52.486;13.424;2023-02-28T04:36:18;24.23;;;5.97;;
8675;SDS011;4375;52.486;13.424;2023-02-28T04:38:44;25.50;;;7.07;;
8675;SDS011;4375;52.486;13.424;2023-02-28T04:41:11;25.80;;;5.85;;
8675;SDS011;4375;52.486;13.424;2023-02-28T04:43:38;20.13;;;6.47;;
8675;SDS011;4375;52.486;13.424;2023-02-28T04:46:04;24.40;;;6.20;;
8675;SDS011;4375;52.486;13.424;2023-02-28T04:48:32;24.17;;;6.43;;
8675;SDS011;4375;52.486;13.424;2023-02-28T04:53:32;22.30;;;6.50;;
8675;SDS011;4375;52.486;13.424;2023-02-28T04:55:58;20.42;;;6.30;;
8675;SDS011;4375;52.486;13.424;2023-02-28T04:58:24;25.23;;;6.57;;
8675;SDS011;4375;52.486;13.424;2023-02-28T05:00:51;21.42;;;6.32;;
8675;SDS011;4375;52.486;13.424;2023-02-28T05:03:17;21.88;;;6.30;;
8675;SDS011;4375;52.486;13.424;2023-02-28T05:05:43;21.10;;;6.50;;
8675;SDS011;4375;52.486;13.424;2023-02-28T05:08:08;20.90;;;6.37;;
8675;SDS011;4375;52.486;13.424;2023-02-28T05:10:34;24.83;;;6.70;;
8675;SDS011;4375;52.486;13.424;2023-02-28T05:13:00;18.98;;;5.65;;
8675;SDS011;4375;52.486;13.424;2023-02-28T05:15:26;20.40;;;6.10;;
8675;SDS011;4375;52.486;13.424;2023-02-28T05:17:53;19.38;;;5.97;;
8675;SDS011;4375;52.486;13.424;2023-02-28T05:20:18;20.47;;;7.10;;
8675;SDS011;4375;52.486;13.424;2023-02-28T05:22:45;19.92;;;6.05;;
8675;SDS011;4375;52.486;13.424;2023-02-28T05:25:12;24.77;;;6.82;;
8675;SDS011;4375;52.486;13.424;2023-02-28T05:27:41;22.73;;;6.68;;
8675;SDS011;4375;52.486;13.424;2023-02-28T05:30:07;22.87;;;6.03;;
8675;SDS011;4375;52.486;13.424;2023-02-28T05:32:35;20.17;;;5.57;;
8675;SDS011;4375;52.486;13.424;2023-02-28T05:35:04;22.38;;;6.22;;
8675;SDS011;4375;52.486;13.424;2023-02-28T05:37:29;22.17;;;5.70;;
8675;SDS011;4375;52.486;13.424;2023-02-28T05:39:55;26.50;;;6.20;;
8675;SDS011;4375;52.486;13.424;2023-02-28T05:42:21;20.93;;;6.73;;
8675;SDS011;4375;52.486;13.424;2023-02-28T05:44:46;21.30;;;5.37;;
8675;SDS011;4375;52.486;13.424;2023-02-28T05:47:12;19.27;;;6.00;;
8675;SDS011;4375;52.486;13.424;2023-02-28T05:49:40;23.42;;;6.30;;
8675;SDS011;4375;52.486;13.424;2023-02-28T05:52:06;23.27;;;7.00;;
8675;SDS011;4375;52.486;13.424;2023-02-28T05:54:32;24.43;;;7.03;;
8675;SDS011;4375;52.486;13.424;2023-02-28T05:56:58;27.27;;;6.27;;
8675;SDS011;4375;52.486;13.424;2023-02-28T05:59:24;23.97;;;6.27;;
8675;SDS011;4375;52.486;13.424;2023-02-28T06:01:49;23.30;;;7.10;;
8675;SDS011;4375;52.486;13.424;2023-02-28T06:04:16;23.10;;;6.90;;
8675;SDS011;4375;52.486;13.424;2023-02-28T06:06:47;21.65;;;6.35;;
8675;SDS011;4375;52.486;13.424;2023-02-28T06:09:13;24.45;;;7.13;;
8675;SDS011;4375;52.486;13.424;2023-02-28T06:11:39;27.98;;;7.00;;
8675;SDS011;4375;52.486;13.424;2023-02-28T06:14:06;26.27;;;8.07;;
8675;SDS011;4375;52.486;13.424;2023-02-28T06:16:33;23.17;;;6.50;;
8675;SDS011;4375;52.486;13.424;2023-02-28T06:19:01;23.58;;;7.32;;
8675;SDS011;4375;52.486;13.424;2023-02-28T06:21:28;22.90;;;7.50;;
8675;SDS011;4375;52.486;13.424;2023-02-28T06:23:55;23.40;;;6.95;;
8675;SDS011;4375;52.486;13.424;2023-02-28T06:26:21;25.85;;;6.90;;
8675;SDS011;4375;52.486;13.424;2023-02-28T06:28:47;23.43;;;7.50;;
8675;SDS011;4375;52.486;13.424;2023-02-28T06:31:14;22.60;;;6.60;;
8675;SDS011;4375;52.486;13.424;2023-02-28T06:33:41;23.70;;;7.90;;
8675;SDS011;4375;52.486;13.424;2023-02-28T06:36:08;21.80;;;7.43;;
8675;SDS011;4375;52.486;13.424;2023-02-28T06:38:35;22.63;;;7.85;;
8675;SDS011;4375;52.486;13.424;2023-02-28T06:41:01;20.00;;;6.95;;
8675;SDS011;4375;52.486;13.424;2023-02-28T06:43:28;26.02;;;7.50;;
8675;SDS011;4375;52.486;13.424;2023-02-28T06:45:55;24.65;;;7.30;;
8675;SDS011;4375;52.486;13.424;2023-02-28T06:48:22;26.60;;;8.30;;
8675;SDS011;4375;52.486;13.424;2023-02-28T06:50:48;24.52;;;7.82;;
8675;SDS011;4375;52.486;13.424;2023-02-28T06:53:15;24.55;;;8.05;;
8675;SDS011;4375;52.486;13.424;2023-02-28T06:55:40;23.93;;;8.07;;
8675;SDS011;4375;52.486;13.424;2023-02-28T06:58:06;25.83;;;8.10;;
8675;SDS011;4375;52.486;13.424;2023-02-28T07:00:44;23.10;;;7.07;;
8675;SDS011;4375;52.486;13.424;2023-02-28T07:03:10;25.23;;;7.95;;
8675;SDS011;4375;52.486;13.424;2023-02-28T07:05:37;26.25;;;7.88;;
8675;SDS011;4375;52.486;13.424;2023-02-28T07:08:04;22.77;;;7.00;;
8675;SDS011;4375;52.486;13.424;2023-02-28T07:10:31;24.10;;;7.90;;
8675;SDS011;4375;52.486;13.424;2023-02-28T07:13:03;23.52;;;6.80;;
8675;SDS011;4375;52.486;13.424;2023-02-28T07:15:29;23.65;;;6.88;;
8675;SDS011;4375;52.486;13.424;2023-02-28T07:17:55;22.67;;;6.70;;
8675;SDS011;4375;52.486;13.424;2023-02-28T07:20:21;24.52;;;6.80;;
8675;SDS011;4375;52.486;13.424;2023-02-28T07:22:48;23.85;;;7.10;;
8675;SDS011;4375;52.486;13.424;2023-02-28T07:25:21;22.30;;;6.80;;
8675;SDS011;4375;52.486;13.424;2023-02-28T07:27:51;21.23;;;6.35;;
8675;SDS011;4375;52.486;13.424;2023-02-28T07:30:17;20.60;;;6.90;;
8675;SDS011;4375;52.486;13.424;2023-02-28T07:32:43;23.17;;;6.33;;
8675;SDS011;4375;52.486;13.424;2023-02-28T07:35:09;27.30;;;7.07;;
8675;SDS011;4375;52.486;13.424;2023-02-28T07:37:34;21.43;;;6.60;;
8675;SDS011;4375;52.486;13.424;2023-02-28T07:40:02;18.65;;;6.00;;
8675;SDS011;4375;52.486;13.424;2023-02-28T07:42:31;24.42;;;6.90;;
8675;SDS011;4375;52.486;13.424;2023-02-28T07:44:57;22.13;;;7.20;;
8675;SDS011;4375;52.486;13.424;2023-02-28T07:47:24;23.67;;;7.55;;
8675;SDS011;4375;52.486;13.424;2023-02-28T07:49:49;20.25;;;5.47;;
8675;SDS011;4375;52.486;13.424;2023-02-28T07:52:15;20.40;;;5.90;;
8675;SDS011;4375;52.486;13.424;2023-02-28T07:54:41;19.43;;;5.23;;
8675;SDS011;4375;52.486;13.424;2023-02-28T07:57:06;19.90;;;5.33;;
8675;SDS011;4375;52.486;13.424;2023-02-28T07:59:32;18.00;;;4.90;;
8675;SDS011;4375;52.486;13.424;2023-02-28T08:01:58;20.93;;;6.30;;
8675;SDS011;4375;52.486;13.424;2023-02-28T08:04:24;19.70;;;4.78;;
8675;SDS011;4375;52.486;13.424;2023-02-28T08:06:50;22.48;;;5.60;;
8675;SDS011;4375;52.486;13.424;2023-02-28T08:09:19;17.30;;;4.07;;
8675;SDS011;4375;52.486;13.424;2023-02-28T08:11:44;18.80;;;5.20;;
8675;SDS011;4375;52.486;13.424;2023-02-28T08:14:10;19.23;;;6.07;;
8675;SDS011;4375;52.486;13.424;2023-02-28T08:16:36;22.67;;;5.60;;
8675;SDS011;4375;52.486;13.424;2023-02-28T08:19:02;21.10;;;4.73;;
8675;SDS011;4375;52.486;13.424;2023-02-28T08:21:27;20.67;;;5.10;;
8675;SDS011;4375;52.486;13.424;2023-02-28T08:23:53;18.80;;;4.03;;
8675;SDS011;4375;52.486;13.424;2023-02-28T08:26:19;22.60;;;5.20;;
8675;SDS011;4375;52.486;13.424;2023-02-28T08:28:45;18.40;;;4.55;;
8675;SDS011;4375;52.486;13.424;2023-02-28T08:31:12;19.73;;;5.18;;
8675;SDS011;4375;52.486;13.424;2023-02-28T08:33:39;17.90;;;3.95;;
8675;SDS011;4375;52.486;13.424;2023-02-28T08:36:06;19.58;;;4.93;;
8675;SDS011;4375;52.486;13.424;2023-02-28T08:38:33;21.17;;;4.30;;
8675;SDS011;4375;52.486;13.424;2023-02-28T08:41:01;19.95;;;4.80;;
8675;SDS011;4375;52.486;13.424;2023-02-28T08:43:28;26.45;;;5.25;;
8675;SDS011;4375;52.486;13.424;2023-02-28T08:45:54;19.70;;;3.83;;
8675;SDS011;4375;52.486;13.424;2023-02-28T08:48:24;17.85;;;3.80;;
8675;SDS011;4375;52.486;13.424;2023-02-28T08:50:57;16.80;;;3.63;;
8675;SDS011;4375;52.486;13.424;2023-02-28T08:53:24;16.48;;;4.28;;
8675;SDS011;4375;52.486;13.424;2023-02-28T08:56:03;19.87;;;4.67;;
8675;SDS011;4375;52.486;13.424;2023-02-28T08:58:31;18.80;;;3.33;;
8675;SDS011;4375;52.486;13.424;2023-02-28T09:00:57;15.17;;;2.80;;
8675;SDS011;4375;52.486;13.424;2023-02-28T09:03:35;18.37;;;2.73;;
8675;SDS011;4375;52.486;13.424;2023-02-28T09:06:04;16.17;;;2.97;;
8675;SDS011;4375;52.486;13.424;2023-02-28T09:08:30;16.20;;;2.90;;
8675;SDS011;4375;52.486;13.424;2023-02-28T09:10:56;14.90;;;2.63;;
8675;SDS011;4375;52.486;13.424;2023-02-28T09:13:23;16.30;;;2.77;;
8675;SDS011;4375;52.486;13.424;2023-02-28T09:15:49;18.60;;;3.60;;
8675;SDS011;4375;52.486;13.424;2023-02-28T09:18:15;17.60;;;3.20;;
8675;SDS011;4375;52.486;13.424;2023-02-28T09:20:42;17.73;;;4.17;;
8675;SDS011;4375;52.486;13.424;2023-02-28T09:23:08;17.60;;;3.97;;
8675;SDS011;4375;52.486;13.424;2023-02-28T09:25:35;30.10;;;4.13;;
8675;SDS011;4375;52.486;13.424;2023-02-28T09:28:01;18.33;;;2.80;;
8675;SDS011;4375;52.486;13.424;2023-02-28T09:30:28;15.90;;;2.87;;
8675;SDS011;4375;52.486;13.424;2023-02-28T09:32:54;16.83;;;3.30;;
8675;SDS011;4375;52.486;13.424;2023-02-28T09:35:20;15.73;;;3.60;;
8675;SDS011;4375;52.486;13.424;2023-02-28T09:37:47;16.87;;;3.07;;
8675;SDS011;4375;52.486;13.424;2023-02-28T09:40:23;18.13;;;3.03;;
8675;SDS011;4375;52.486;13.424;2023-02-28T09:42:51;15.57;;;2.90;;
8675;SDS011;4375;52.486;13.424;2023-02-28T09:45:30;16.63;;;3.20;;
8675;SDS011;4375;52.486;13.424;2023-02-28T09:48:12;14.90;;;2.70;;
8675;SDS011;4375;52.486;13.424;2023-02-28T09:50:59;16.90;;;3.17;;
8675;SDS011;4375;52.486;13.424;2023-02-28T09:53:38;17.37;;;2.80;;
8675;SDS011;4375;52.486;13.424;2023-02-28T09:56:08;17.90;;;2.60;;
8675;SDS011;4375;52.486;13.424;2023-02-28T10:01:03;16.23;;;2.77;;
8675;SDS011;4375;52.486;13.424;2023-02-28T10:03:42;15.50;;;2.90;;
8675;SDS011;4375;52.486;13.424;2023-02-28T10:06:24;14.60;;;2.70;;
8675;SDS011;4375;52.486;13.424;2023-02-28T10:09:00;16.00;;;2.93;;
8675;SDS011;4375;52.486;13.424;2023-02-28T10:11:34;18.47;;;4.63;;
8675;SDS011;4375;52.486;13.424;2023-02-28T10:21:49;20.03;;;3.40;;
8675;SDS011;4375;52.486;13.424;2023-02-28T10:27:01;19.03;;;3.13;;
8675;SDS011;4375;52.486;13.424;2023-02-28T10:29:38;17.73;;;3.10;;
8675;SDS011;4375;52.486;13.424;2023-02-28T10:32:11;15.30;;;3.13;;
8675;SDS011;4375;52.486;13.424;2023-02-28T10:37:39;18.80;;;3.47;;
8675;SDS011;4375;52.486;13.424;2023-02-28T10:40:06;15.00;;;2.83;;
8675;SDS011;4375;52.486;13.424;2023-02-28T10:43:00;15.03;;;2.40;;
8675;SDS011;4375;52.486;13.424;2023-02-28T10:45:38;15.57;;;2.93;;
8675;SDS011;4375;52.486;13.424;2023-02-28T10:48:27;15.93;;;2.60;;
8675;SDS011;4375;52.486;13.424;2023-02-28T10:50:52;15.30;;;2.70;;
8675;SDS011;4375;52.486;13.424;2023-02-28T10:53:24;17.90;;;2.70;;
8675;SDS011;4375;52.486;13.424;2023-02-28T10:55:58;15.20;;;2.93;;
8675;SDS011;4375;52.486;13.424;2023-02-28T11:01:24;16.93;;;2.90;;
8675;SDS011;4375;52.486;13.424;2023-02-28T11:03:56;15.20;;;2.93;;
8675;SDS011;4375;52.486;13.424;2023-02-28T11:06:26;18.33;;;3.70;;
8675;SDS011;4375;52.486;13.424;2023-02-28T11:08:58;16.80;;;3.33;;
8675;SDS011;4375;52.486;13.424;2023-02-28T11:11:25;17.00;;;3.00;;
8675;SDS011;4375;52.486;13.424;2023-02-28T11:13:54;16.30;;;3.60;;
8675;SDS011;4375;52.486;13.424;2023-02-28T11:16:50;17.20;;;3.90;;
8675;SDS011;4375;52.486;13.424;2023-02-28T11:19:19;18.30;;;4.20;;
8675;SDS011;4375;52.486;13.424;2023-02-28T11:21:59;18.10;;;3.70;;
8675;SDS011;4375;52.486;13.424;2023-02-28T11:27:02;16.80;;;3.80;;
8675;SDS011;4375;52.486;13.424;2023-02-28T11:29:29;16.30;;;3.93;;
8675;SDS011;4375;52.486;13.424;2023-02-28T11:35:10;16.73;;;3.40;;
8675;SDS011;4375;52.486;13.424;2023-02-28T11:37:44;17.03;;;4.20;;
8675;SDS011;4375;52.486;13.424;2023-02-28T11:40:14;18.03;;;4.00;;
8675;SDS011;4375;52.486;13.424;2023-02-28T11:42:57;16.87;;;3.80;;
8675;SDS011;4375;52.486;13.424;2023-02-28T11:45:45;18.67;;;3.63;;
8675;SDS011;4375;52.486;13.424;2023-02-28T11:48:34;19.83;;;4.30;;
8675;SDS011;4375;52.486;13.424;2023-02-28T11:56:21;18.13;;;3.70;;
8675;SDS011;4375;52.486;13.424;2023-02-28T11:59:12;17.83;;;4.20;;
8675;SDS011;4375;52.486;13.424;2023-02-28T12:18:53;16.30;;;4.00;;
8675;SDS011;4375;52.486;13.424;2023-02-28T12:26:51;23.00;;;4.50;;
8675;SDS011;4375;52.486;13.424;2023-02-28T12:29:23;17.53;;;3.80;;
8675;SDS011;4375;52.486;13.424;2023-02-28T12:32:55;18.00;;;4.10;;
8675;SDS011;4375;52.486;13.424;2023-02-28T12:35:16;22.33;;;4.67;;
8675;SDS011;4375;52.486;13.424;2023-02-28T12:37:56;19.40;;;4.47;;
8675;SDS011;4375;52.486;13.424;2023-02-28T12:41:11;20.20;;;5.03;;
8675;SDS011;4375;52.486;13.424;2023-02-28T12:43:32;16.97;;;3.53;;
8675;SDS011;4375;52.486;13.424;2023-02-28T12:46:16;16.90;;;3.53;;
8675;SDS011;4375;52.486;13.424;2023-02-28T12:49:13;19.30;;;3.53;;
8675;SDS011;4375;52.486;13.424;2023-02-28T12:51:50;18.37;;;3.37;;
8675;SDS011;4375;52.486;13.424;2023-02-28T12:57:17;15.80;;;3.60;;
8675;SDS011;4375;52.486;13.424;2023-02-28T12:59:52;17.73;;;3.70;;
8675;SDS011;4375;52.486;13.424;2023-02-28T13:10:21;16.93;;;3.43;;
8675;SDS011;4375;52.486;13.424;2023-02-28T13:12:51;15.10;;;2.70;;
8675;SDS011;4375;52.486;13.424;2023-02-28T13:15:25;20.07;;;4.10;;
8675;SDS011;4375;52.486;13.424;2023-02-28T13:17:54;16.93;;;3.10;;
8675;SDS011;4375;52.486;13.424;2023-02-28T13:20:31;15.97;;;3.47;;
8675;SDS011;4375;52.486;13.424;2023-02-28T13:23:00;19.07;;;3.40;;
8675;SDS011;4375;52.486;13.424;2023-02-28T13:28:11;16.03;;;3.20;;
8675;SDS011;4375;52.486;13.424;2023-02-28T13:31:02;15.77;;;2.93;;
8675;SDS011;4375;52.486;13.424;2023-02-28T13:33:36;18.13;;;3.20;;
8675;SDS011;4375;52.486;13.424;2023-02-28T13:36:26;16.70;;;3.57;;
8675;SDS011;4375;52.486;13.424;2023-02-28T13:39:00;16.33;;;3.73;;
8675;SDS011;4375;52.486;13.424;2023-02-28T13:41:47;19.33;;;4.77;;
8675;SDS011;4375;52.486;13.424;2023-02-28T13:44:22;17.87;;;3.40;;
8675;SDS011;4375;52.486;13.424;2023-02-28T13:49:18;18.80;;;3.40;;
8675;SDS011;4375;52.486;13.424;2023-02-28T13:52:33;20.00;;;3.83;;
8675;SDS011;4375;52.486;13.424;2023-02-28T13:57:30;19.50;;;3.90;;
8675;SDS011;4375;52.486;13.424;2023-02-28T14:05:14;17.13;;;4.10;;
8675;SDS011;4375;52.486;13.424;2023-02-28T14:07:46;16.37;;;3.23;;
8675;SDS011;4375;52.486;13.424;2023-02-28T14:12:54;21.33;;;5.90;;
8675;SDS011;4375;52.486;13.424;2023-02-28T14:17:58;22.00;;;4.13;;
8675;SDS011;4375;52.486;13.424;2023-02-28T14:20:27;16.70;;;3.70;;
8675;SDS011;4375;52.486;13.424;2023-02-28T14:23:16;17.47;;;3.90;;
8675;SDS011;4375;52.486;13.424;2023-02-28T14:25:55;16.73;;;3.80;;
8675;SDS011;4375;52.486;13.424;2023-02-28T14:31:40;18.77;;;4.80;;
8675;SDS011;4375;52.486;13.424;2023-02-28T14:34:17;19.43;;;4.63;;
8675;SDS011;4375;52.486;13.424;2023-02-28T14:37:00;19.73;;;4.87;;
8675;SDS011;4375;52.486;13.424;2023-02-28T14:39:27;19.20;;;4.63;;
8675;SDS011;4375;52.486;13.424;2023-02-28T14:41:56;17.43;;;4.63;;
8675;SDS011;4375;52.486;13.424;2023-02-28T14:44:27;20.70;;;5.97;;
8675;SDS011;4375;52.486;13.424;2023-02-28T14:46:53;23.53;;;7.60;;
8675;SDS011;4375;52.486;13.424;2023-02-28T14:54:34;21.90;;;5.73;;
8675;SDS011;4375;52.486;13.424;2023-02-28T14:57:03;19.07;;;4.20;;
8675;SDS011;4375;52.486;13.424;2023-02-28T14:59:31;26.13;;;10.27;;
8675;SDS011;4375;52.486;13.424;2023-02-28T15:02:16;17.30;;;4.10;;
8675;SDS011;4375;52.486;13.424;2023-02-28T15:04:54;18.40;;;4.80;;
8675;SDS011;4375;52.486;13.424;2023-02-28T15:07:21;19.93;;;4.50;;
8675;SDS011;4375;52.486;13.424;2023-02-28T15:12:37;20.93;;;5.70;;
8675;SDS011;4375;52.486;13.424;2023-02-28T15:15:05;20.57;;;4.40;;
8675;SDS011;4375;52.486;13.424;2023-02-28T15:17:38;23.33;;;5.60;;
8675;SDS011;4375;52.486;13.424;2023-02-28T15:20:04;18.57;;;5.60;;
8675;SDS011;4375;52.486;13.424;2023-02-28T15:22:33;21.70;;;5.77;;
8675;SDS011;4375;52.486;13.424;2023-02-28T15:25:02;17.77;;;5.13;;
8675;SDS011;4375;52.486;13.424;2023-02-28T15:27:31;21.60;;;6.30;;
8675;SDS011;4375;52.486;13.424;2023-02-28T15:30:05;19.70;;;5.70;;
8675;SDS011;4375;52.486;13.424;2023-02-28T15:32:35;26.67;;;7.83;;
8675;SDS011;4375;52.486;13.424;2023-02-28T15:38:25;23.33;;;5.70;;
8675;SDS011;4375;52.486;13.424;2023-02-28T15:40:52;17.93;;;5.13;;
8675;SDS011;4375;52.486;13.424;2023-02-28T15:43:27;17.87;;;4.90;;
8675;SDS011;4375;52.486;13.424;2023-02-28T15:48:32;17.63;;;4.37;;
8675;SDS011;4375;52.486;13.424;2023-02-28T15:53:46;19.30;;;5.60;;
8675;SDS011;4375;52.486;13.424;2023-02-28T15:56:27;16.67;;;4.30;;
8675;SDS011;4375;52.486;13.424;2023-02-28T15:58:55;20.30;;;5.40;;
8675;SDS011;4375;52.486;13.424;2023-02-28T16:01:27;22.10;;;5.10;;
8675;SDS011;4375;52.486;13.424;2023-02-28T16:03:56;21.83;;;5.37;;
8675;SDS011;4375;52.486;13.424;2023-02-28T16:06:42;22.83;;;5.40;;
8675;SDS011;4375;52.486;13.424;2023-02-28T16:09:11;28.30;;;8.80;;
8675;SDS011;4375;52.486;13.424;2023-02-28T16:11:40;25.40;;;7.03;;
8675;SDS011;4375;52.486;13.424;2023-02-28T16:14:24;26.90;;;7.97;;
8675;SDS011;4375;52.486;13.424;2023-02-28T16:16:53;33.27;;;10.30;;
8675;SDS011;4375;52.486;13.424;2023-02-28T16:19:21;27.77;;;8.73;;
8675;SDS011;4375;52.486;13.424;2023-02-28T16:21:48;28.17;;;8.50;;
8675;SDS011;4375;52.486;13.424;2023-02-28T16:24:14;22.83;;;5.97;;
8675;SDS011;4375;52.486;13.424;2023-02-28T16:26:39;21.00;;;6.30;;
8675;SDS011;4375;52.486;13.424;2023-02-28T16:29:07;19.20;;;5.27;;
8675;SDS011;4375;52.486;13.424;2023-02-28T16:31:37;26.03;;;5.00;;
8675;SDS011;4375;52.486;13.424;2023-02-28T16:34:04;21.73;;;6.97;;
8675;SDS011;4375;52.486;13.424;2023-02-28T16:36:30;24.00;;;7.67;;
8675;SDS011;4375;52.486;13.424;2023-02-28T16:38:56;18.60;;;5.60;;
8675;SDS011;4375;52.486;13.424;2023-02-28T16:41:22;22.73;;;5.90;;
8675;SDS011;4375;52.486;13.424;2023-02-28T16:43:51;16.70;;;4.23;;
8675;SDS011;4375;52.486;13.424;2023-02-28T16:46:18;20.23;;;5.10;;
8675;SDS011;4375;52.486;13.424;2023-02-28T16:48:45;18.90;;;5.60;;
8675;SDS011;4375;52.486;13.424;2023-02-28T16:51:14;20.53;;;5.53;;
8675;SDS011;4375;52.486;13.424;2023-02-28T16:53:41;18.83;;;5.03;;
8675;SDS011;4375;52.486;13.424;2023-02-28T16:56:12;19.50;;;5.47;;
8675;SDS011;4375;52.486;13.424;2023-02-28T16:58:50;19.33;;;5.20;;
8675;SDS011;4375;52.486;13.424;2023-02-28T17:01:17;20.73;;;5.53;;
8675;SDS011;4375;52.486;13.424;2023-02-28T17:03:46;19.93;;;5.50;;
8675;SDS011;4375;52.486;13.424;2023-02-28T17:06:16;21.53;;;5.27;;
8675;SDS011;4375;52.486;13.424;2023-02-28T17:08:44;19.73;;;5.30;;
8675;SDS011;4375;52.486;13.424;2023-02-28T17:11:11;21.20;;;5.60;;
8675;SDS011;4375;52.486;13.424;2023-02-28T17:13:36;21.43;;;6.50;;
8675;SDS011;4375;52.486;13.424;2023-02-28T17:16:02;21.33;;;6.60;;
8675;SDS011;4375;52.486;13.424;2023-02-28T17:18:27;23.10;;;6.53;;